createdAt,value
2019-01-24T00:00:24.475Z,0.40
2019-01-24T00:02:52.976Z,0.40
2019-01-24T00:05:21.637Z,0.40
2019-01-24T00:07:50.150Z,0.40
2019-01-24T00:10:18.652Z,0.30
2019-01-24T00:12:47.073Z,0.30
2019-01-24T00:15:16.316Z,0.30
2019-01-24T00:17:44.777Z,0.30
2019-01-24T00:20:15.832Z,0.30
2019-01-24T00:22:44.260Z,0.20
2019-01-24T00:25:12.961Z,0.20
2019-01-24T00:27:41.513Z,0.20
2019-01-24T00:30:17.082Z,0.10
2019-01-24T00:32:45.849Z,0.10
2019-01-24T00:35:14.469Z,0.10
2019-01-24T00:37:42.983Z,0.20
2019-01-24T00:40:17.203Z,0.10
2019-01-24T00:42:45.628Z,0.10
2019-01-24T00:45:14.621Z,0.10
2019-01-24T00:47:43.194Z,0.10
2019-01-24T00:50:13.667Z,0.10
2019-01-24T00:52:42.240Z,0.10
2019-01-24T00:55:13.697Z,0.10
2019-01-24T00:57:42.540Z,0.10
2019-01-24T01:00:19.520Z,0.10
2019-01-24T01:02:48.357Z,0.10
2019-01-24T01:05:17.148Z,0.10
2019-01-24T01:07:45.727Z,0.10
2019-01-24T01:10:16.100Z,0.10
2019-01-24T01:12:44.865Z,0.10
2019-01-24T01:15:18.484Z,0.10
2019-01-24T01:17:47.135Z,0.00
2019-01-24T01:20:20.977Z,0.00
2019-01-24T01:22:49.944Z,0.00
2019-01-24T01:25:18.617Z,0.00
2019-01-24T01:27:47.173Z,0.00
2019-01-24T01:30:20.917Z,0.00
2019-01-24T01:32:49.724Z,0.00
2019-01-24T01:35:18.522Z,0.00
2019-01-24T01:37:47.593Z,0.00
2019-01-24T01:40:18.652Z,0.00
2019-01-24T01:42:47.744Z,0.00
2019-01-24T01:45:18.669Z,0.00
2019-01-24T01:47:47.367Z,0.00
2019-01-24T01:50:23.501Z,0.00
2019-01-24T01:52:52.095Z,0.00
2019-01-24T01:55:20.675Z,0.00
2019-01-24T01:57:49.383Z,0.00
2019-01-24T02:00:23.274Z,0.00
2019-01-24T02:02:53.263Z,0.00
2019-01-24T02:05:21.944Z,-0.10
2019-01-24T02:07:50.718Z,-0.10
2019-01-24T02:10:24.069Z,0.00
2019-01-24T02:12:52.658Z,0.00
2019-01-24T02:15:21.339Z,0.00
2019-01-24T02:17:50.029Z,0.00
2019-01-24T02:20:21.085Z,-0.10
2019-01-24T02:22:49.581Z,-0.10
2019-01-24T02:25:18.340Z,-0.10
2019-01-24T02:27:46.799Z,-0.10
2019-01-24T02:30:26.659Z,-0.10
2019-01-24T02:35:27.517Z,-0.10
2019-01-24T02:37:56.048Z,-0.10
2019-01-24T02:40:24.565Z,-0.10
2019-01-24T02:42:52.981Z,-0.10
2019-01-24T02:45:23.500Z,-0.10
2019-01-24T02:47:52.457Z,-0.10
2019-01-24T02:50:22.651Z,-0.10
2019-01-24T02:52:51.310Z,-0.10
2019-01-24T02:55:20.006Z,-0.10
2019-01-24T02:57:48.615Z,-0.10
2019-01-24T03:00:20.138Z,-0.10
2019-01-24T03:02:48.810Z,-0.10
2019-01-24T03:05:19.592Z,-0.10
2019-01-24T03:07:48.569Z,-0.10
2019-01-24T03:10:17.459Z,-0.10
2019-01-24T03:12:46.033Z,-0.10
2019-01-24T03:15:16.763Z,-0.20
2019-01-24T03:17:45.329Z,-0.20
2019-01-24T03:20:15.701Z,-0.20
2019-01-24T03:22:44.360Z,-0.20
2019-01-24T03:25:15.335Z,-0.20
2019-01-24T03:27:43.830Z,-0.20
2019-01-24T03:30:17.719Z,-0.20
2019-01-24T03:32:46.242Z,-0.30
2019-01-24T03:35:17.736Z,-0.20
2019-01-24T03:37:46.246Z,-0.20
2019-01-24T03:40:15.708Z,-0.20
2019-01-24T03:42:44.330Z,-0.30
2019-01-24T03:45:15.212Z,-0.20
2019-01-24T03:47:43.663Z,-0.30
2019-01-24T03:50:14.587Z,-0.20
2019-01-24T03:52:43.188Z,-0.30
2019-01-24T03:55:13.334Z,-0.30
2019-01-24T03:57:41.830Z,-0.30
2019-01-24T04:00:16.252Z,-0.30
2019-01-24T04:02:44.966Z,-0.30
2019-01-24T04:05:13.941Z,-0.30
2019-01-24T04:07:43.573Z,-0.30
2019-01-24T04:10:17.618Z,-0.30
2019-01-24T04:12:46.607Z,-0.30
2019-01-24T04:15:17.458Z,-0.30
2019-01-24T04:17:45.993Z,-0.30
2019-01-24T04:20:14.697Z,-0.30
2019-01-24T04:22:43.186Z,-0.30
2019-01-24T04:25:11.902Z,-0.30
2019-01-24T04:27:40.407Z,-0.30
2019-01-24T04:30:11.949Z,-0.30
2019-01-24T04:32:40.365Z,-0.30
2019-01-24T04:35:10.362Z,-0.30
2019-01-24T04:37:40.416Z,-0.40
2019-01-24T04:40:14.213Z,-0.40
2019-01-24T04:42:42.771Z,-0.40
2019-01-24T04:45:13.376Z,-0.30
2019-01-24T04:47:41.793Z,-0.40
2019-01-24T04:50:18.368Z,-0.40
2019-01-24T04:52:47.065Z,-0.40
2019-01-24T04:55:17.351Z,-0.40
2019-01-24T04:57:46.206Z,-0.40
2019-01-24T05:00:26.196Z,-0.40
2019-01-24T05:02:54.851Z,-0.50
2019-01-24T05:05:27.864Z,-0.40
2019-01-24T05:07:53.528Z,-0.40
2019-01-24T05:10:22.153Z,-0.40
2019-01-24T05:12:53.645Z,-0.40
2019-01-24T05:15:22.230Z,-0.40
2019-01-24T05:17:50.665Z,-0.40
2019-01-24T05:20:19.241Z,-0.40
2019-01-24T05:22:47.833Z,-0.40
2019-01-24T05:25:17.205Z,-0.40
2019-01-24T05:27:45.643Z,-0.40
2019-01-24T05:30:22.500Z,-0.40
2019-01-24T05:32:50.924Z,-0.40
2019-01-24T05:35:19.418Z,-0.40
2019-01-24T05:37:48.039Z,-0.40
2019-01-24T05:40:16.459Z,-0.40
2019-01-24T05:42:45.095Z,-0.50
2019-01-24T05:45:14.656Z,-0.50
2019-01-24T05:47:43.116Z,-0.50
2019-01-24T05:50:13.046Z,-0.50
2019-01-24T05:52:41.552Z,-0.50
2019-01-24T05:55:11.828Z,-0.50
2019-01-24T05:57:40.346Z,-0.50
2019-01-24T06:00:18.553Z,-0.60
2019-01-24T06:02:47.797Z,-0.50
2019-01-24T06:05:16.454Z,-0.50
2019-01-24T06:07:44.908Z,-0.50
2019-01-24T06:10:17.692Z,-0.60
2019-01-24T06:12:46.144Z,-0.60
2019-01-24T06:15:16.739Z,-0.50
2019-01-24T06:17:45.408Z,-0.60
2019-01-24T06:20:14.483Z,-0.60
2019-01-24T06:22:43.067Z,-0.60
2019-01-24T06:25:15.634Z,-0.60
2019-01-24T06:27:44.305Z,-0.60
2019-01-24T06:30:23.161Z,-0.60
2019-01-24T06:32:51.671Z,-0.60
2019-01-24T06:35:20.184Z,-0.60
2019-01-24T06:37:48.712Z,-0.70
2019-01-24T06:40:17.203Z,-0.70
2019-01-24T06:42:45.629Z,-0.70
2019-01-24T06:45:16.527Z,-0.70
2019-01-24T06:47:45.196Z,-0.60
2019-01-24T06:50:15.877Z,-0.70
2019-01-24T06:52:44.379Z,-0.60
2019-01-24T06:55:16.026Z,-0.70
2019-01-24T06:57:44.525Z,-0.70
2019-01-24T07:00:15.616Z,-0.70
2019-01-24T07:02:44.040Z,-0.70
2019-01-24T07:05:12.928Z,-0.70
2019-01-24T07:07:41.374Z,-0.70
2019-01-24T07:10:19.031Z,-0.70
2019-01-24T07:12:47.537Z,-0.70
2019-01-24T07:15:18.777Z,-0.70
2019-01-24T07:17:47.213Z,-0.70
2019-01-24T07:20:19.920Z,-0.60
2019-01-24T07:22:48.485Z,-0.70
2019-01-24T07:25:22.010Z,-0.70
2019-01-24T07:27:50.567Z,-0.60
2019-01-24T07:30:20.255Z,-0.60
2019-01-24T07:32:48.835Z,-0.60
2019-01-24T07:35:18.513Z,-0.60
2019-01-24T07:37:47.074Z,-0.60
2019-01-24T07:40:17.398Z,-0.60
2019-01-24T07:42:46.078Z,-0.60
2019-01-24T07:45:17.417Z,-0.60
2019-01-24T07:47:45.995Z,-0.60
2019-01-24T07:50:14.786Z,-0.60
2019-01-24T07:52:43.401Z,-0.60
2019-01-24T07:55:13.455Z,-0.60
2019-01-24T07:57:42.817Z,-0.60
2019-01-24T08:00:14.339Z,-0.60
2019-01-24T08:02:42.794Z,-0.60
2019-01-24T08:05:13.472Z,-0.50
2019-01-24T08:07:42.086Z,-0.50
2019-01-24T08:10:13.260Z,-0.50
2019-01-24T08:12:41.709Z,-0.50
2019-01-24T08:15:15.252Z,-0.50
2019-01-24T08:17:44.139Z,-0.50
2019-01-24T08:20:20.072Z,-0.40
2019-01-24T08:22:48.580Z,-0.40
2019-01-24T08:25:17.422Z,-0.40
2019-01-24T08:27:45.934Z,-0.40
2019-01-24T08:30:22.816Z,-0.40
2019-01-24T08:32:51.506Z,-0.30
2019-01-24T08:35:19.956Z,-0.30
2019-01-24T08:37:48.575Z,-0.30
2019-01-24T08:40:24.139Z,-0.30
2019-01-24T08:42:52.833Z,-0.30
2019-01-24T08:45:21.368Z,-0.30
2019-01-24T08:47:50.157Z,-0.30
2019-01-24T08:50:21.253Z,-0.20
2019-01-24T08:52:49.820Z,-0.20
2019-01-24T08:55:27.182Z,-0.20
2019-01-24T08:57:55.632Z,-0.20
2019-01-24T09:00:24.222Z,-0.10
2019-01-24T09:02:53.502Z,-0.10
2019-01-24T09:05:22.699Z,-0.10
2019-01-24T09:07:51.124Z,0.00
2019-01-24T09:10:28.474Z,0.00
2019-01-24T09:12:56.873Z,0.00
2019-01-24T09:15:25.863Z,0.00
2019-01-24T09:17:54.380Z,0.10
2019-01-24T09:20:23.164Z,0.10
2019-01-24T09:22:55.350Z,0.10
2019-01-24T09:25:21.919Z,0.20
2019-01-24T09:27:50.400Z,0.20
2019-01-24T09:30:24.478Z,0.30
2019-01-24T09:32:53.054Z,0.30
2019-01-24T09:35:21.556Z,0.40
2019-01-24T09:37:50.117Z,0.40
2019-01-24T09:40:20.600Z,0.50
2019-01-24T09:42:49.361Z,0.50
2019-01-24T09:45:20.061Z,0.60
2019-01-24T09:47:48.922Z,0.60
2019-01-24T09:50:22.531Z,0.60
2019-01-24T09:52:51.018Z,0.60
2019-01-24T09:55:19.541Z,0.60
2019-01-24T09:57:48.115Z,0.60
2019-01-24T10:00:27.867Z,0.60
2019-01-24T10:02:56.453Z,0.60
2019-01-24T10:05:25.123Z,0.60
2019-01-24T10:07:53.939Z,0.70
2019-01-24T10:10:24.310Z,0.60
2019-01-24T10:12:53.631Z,0.60
2019-01-24T10:15:22.507Z,0.70
2019-01-24T10:17:51.115Z,0.60
2019-01-24T10:20:24.836Z,0.60
2019-01-24T10:22:53.525Z,0.60
2019-01-24T10:25:30.582Z,0.70
2019-01-24T10:27:59.116Z,0.70
2019-01-24T10:30:27.897Z,0.70
2019-01-24T10:32:56.783Z,0.70
2019-01-24T10:35:25.192Z,0.70
2019-01-24T10:37:53.890Z,0.80
2019-01-24T10:40:24.944Z,0.70
2019-01-24T10:42:53.471Z,0.70
2019-01-24T10:45:22.338Z,0.80
2019-01-24T10:47:52.404Z,0.80
2019-01-24T10:50:23.094Z,0.80
2019-01-24T10:52:51.629Z,0.90
2019-01-24T10:55:22.197Z,0.90
2019-01-24T10:57:51.500Z,0.90
2019-01-24T11:00:28.833Z,1.00
2019-01-24T11:02:57.309Z,1.00
2019-01-24T11:05:25.740Z,1.00
2019-01-24T11:07:54.153Z,1.10
2019-01-24T11:10:22.746Z,1.10
2019-01-24T11:12:51.405Z,1.10
2019-01-24T11:15:22.499Z,1.10
2019-01-24T11:17:50.993Z,1.10
2019-01-24T11:20:20.387Z,1.10
2019-01-24T11:22:50.052Z,1.10
2019-01-24T11:25:21.138Z,1.10
2019-01-24T11:27:49.648Z,1.10
2019-01-24T11:30:27.059Z,1.10
2019-01-24T11:32:56.038Z,1.10
2019-01-24T11:35:30.119Z,1.10
2019-01-24T11:37:58.631Z,1.10
2019-01-24T11:40:27.418Z,1.10
2019-01-24T11:42:56.603Z,1.20
2019-01-24T11:45:30.680Z,1.20
2019-01-24T11:47:59.286Z,1.20
2019-01-24T11:50:27.810Z,1.20
2019-01-24T11:52:56.532Z,1.20
2019-01-24T11:55:25.067Z,1.20
2019-01-24T11:57:53.649Z,1.20
2019-01-24T12:00:32.003Z,1.20
2019-01-24T12:03:00.669Z,1.20
2019-01-24T12:05:29.186Z,1.20
2019-01-24T12:07:57.636Z,1.20
2019-01-24T12:10:29.186Z,1.10
2019-01-24T12:12:57.609Z,1.10
2019-01-24T12:15:33.265Z,1.10
2019-01-24T12:18:01.764Z,1.10
2019-01-24T12:20:30.280Z,1.00
2019-01-24T12:22:58.819Z,1.00
2019-01-24T12:25:27.291Z,1.00
2019-01-24T12:27:55.803Z,1.00
2019-01-24T12:30:26.667Z,1.00
2019-01-24T12:32:55.278Z,1.00
2019-01-24T12:35:23.780Z,1.00
2019-01-24T12:37:52.419Z,1.00
2019-01-24T12:40:20.835Z,1.00
2019-01-24T12:42:49.294Z,1.00
2019-01-24T12:45:33.088Z,1.00
2019-01-24T12:48:01.594Z,1.00
2019-01-24T12:50:30.013Z,1.00
2019-01-24T12:52:58.460Z,1.00
2019-01-24T12:55:27.161Z,1.00
2019-01-24T12:57:55.677Z,1.00
2019-01-24T13:00:32.525Z,1.00
2019-01-24T13:03:00.960Z,1.00
2019-01-24T13:05:29.464Z,1.00
2019-01-24T13:07:58.049Z,1.00
2019-01-24T13:10:27.813Z,1.00
2019-01-24T13:12:56.829Z,1.00
2019-01-24T13:15:27.958Z,1.00
2019-01-24T13:17:56.573Z,1.00
2019-01-24T13:20:25.169Z,1.00
2019-01-24T13:22:53.737Z,1.00
2019-01-24T13:25:24.534Z,1.00
2019-01-24T13:27:53.040Z,0.90
2019-01-24T13:30:23.627Z,0.90
2019-01-24T13:32:52.113Z,0.90
2019-01-24T13:35:20.625Z,0.90
2019-01-24T13:37:49.193Z,0.80
2019-01-24T13:40:20.432Z,0.90
2019-01-24T13:42:49.043Z,0.80
2019-01-24T13:45:22.875Z,0.80
2019-01-24T13:47:51.747Z,0.80
2019-01-24T13:50:20.468Z,0.80
2019-01-24T13:52:49.009Z,0.80
2019-01-24T13:55:17.518Z,0.70
2019-01-24T13:57:46.021Z,0.70
2019-01-24T14:00:20.013Z,0.70
2019-01-24T14:02:51.093Z,0.70
2019-01-24T14:05:20.035Z,0.70
2019-01-24T14:07:48.447Z,0.70
2019-01-24T14:10:18.033Z,0.70
2019-01-24T14:12:46.609Z,0.70
2019-01-24T14:15:19.365Z,0.60
2019-01-24T14:17:47.873Z,0.70
2019-01-24T14:20:18.752Z,0.70
2019-01-24T14:22:47.341Z,0.70
2019-01-24T14:25:18.080Z,0.70
2019-01-24T14:27:46.709Z,0.70
2019-01-24T14:30:23.957Z,0.70
2019-01-24T14:32:52.721Z,0.70
2019-01-24T14:35:21.597Z,0.60
2019-01-24T14:37:50.551Z,0.70
2019-01-24T14:40:19.252Z,0.70
2019-01-24T14:42:47.825Z,0.70
2019-01-24T14:45:25.124Z,0.70
2019-01-24T14:47:53.586Z,0.70
2019-01-24T14:50:24.347Z,0.70
2019-01-24T14:52:53.035Z,0.60
2019-01-24T14:55:21.546Z,0.60
2019-01-24T14:57:50.178Z,0.60
2019-01-24T15:00:27.359Z,0.60
2019-01-24T15:02:55.890Z,0.60
2019-01-24T15:05:24.372Z,0.60
2019-01-24T15:07:52.980Z,0.60
2019-01-24T15:10:21.698Z,0.60
2019-01-24T15:12:50.285Z,0.60
2019-01-24T15:15:20.991Z,0.60
2019-01-24T15:17:49.430Z,0.60
2019-01-24T15:20:19.404Z,0.60
2019-01-24T15:22:48.088Z,0.60
2019-01-24T15:25:21.109Z,0.50
2019-01-24T15:27:49.691Z,0.50
2019-01-24T15:30:28.833Z,0.50
2019-01-24T15:32:57.531Z,0.50
2019-01-24T15:35:26.106Z,0.50
2019-01-24T15:37:54.998Z,0.50
2019-01-24T15:40:29.432Z,0.50
2019-01-24T15:42:58.022Z,0.50
2019-01-24T15:45:26.834Z,0.50
2019-01-24T15:47:55.572Z,0.40
2019-01-24T15:50:25.342Z,0.40
2019-01-24T15:52:53.913Z,0.40
2019-01-24T15:55:22.840Z,0.40
2019-01-24T15:57:51.370Z,0.40
2019-01-24T16:00:31.488Z,0.40
2019-01-24T16:03:00.081Z,0.30
2019-01-24T16:05:28.532Z,0.30
2019-01-24T16:08:01.662Z,0.30
2019-01-24T16:10:27.274Z,0.30
2019-01-24T16:12:55.777Z,0.30
2019-01-24T16:15:35.645Z,0.30
2019-01-24T16:18:06.802Z,0.30
2019-01-24T16:20:35.350Z,0.30
2019-01-24T16:23:04.440Z,0.30
2019-01-24T16:25:34.238Z,0.30
2019-01-24T16:28:02.800Z,0.30
2019-01-24T16:30:33.286Z,0.30
2019-01-24T16:33:02.539Z,0.30
2019-01-24T16:35:31.837Z,0.30
2019-01-24T16:38:00.605Z,0.30
2019-01-24T16:40:30.059Z,0.30
2019-01-24T16:42:58.754Z,0.30
2019-01-24T16:45:28.980Z,0.30
2019-01-24T16:47:57.955Z,0.30
2019-01-24T16:50:27.619Z,0.30
2019-01-24T16:52:56.165Z,0.30
2019-01-24T16:55:24.721Z,0.30
2019-01-24T16:57:53.693Z,0.20
2019-01-24T17:00:30.672Z,0.20
2019-01-24T17:02:59.215Z,0.20
2019-01-24T17:05:27.901Z,0.20
2019-01-24T17:07:56.527Z,0.20
2019-01-24T17:10:26.987Z,0.20
2019-01-24T17:12:55.603Z,0.20
2019-01-24T17:15:24.367Z,0.20
2019-01-24T17:17:52.830Z,0.20
2019-01-24T17:20:26.137Z,0.20
2019-01-24T17:22:55.234Z,0.20
2019-01-24T17:25:25.624Z,0.20
2019-01-24T17:27:54.444Z,0.20
2019-01-24T17:30:25.306Z,0.20
2019-01-24T17:32:53.862Z,0.20
2019-01-24T17:35:22.558Z,0.20
2019-01-24T17:37:51.162Z,0.10
2019-01-24T17:40:24.955Z,0.20
2019-01-24T17:42:53.403Z,0.10
2019-01-24T17:45:21.992Z,0.20
2019-01-24T17:47:50.586Z,0.10
2019-01-24T17:50:19.113Z,0.20
2019-01-24T17:52:47.897Z,0.20
2019-01-24T17:55:25.212Z,0.10
2019-01-24T17:57:53.772Z,0.20
2019-01-24T18:00:24.523Z,0.20
2019-01-24T18:02:52.980Z,0.20
2019-01-24T18:05:21.566Z,0.20
2019-01-24T18:07:50.166Z,0.20
2019-01-24T18:10:24.578Z,0.10
2019-01-24T18:12:53.246Z,0.20
2019-01-24T18:15:24.243Z,0.20
2019-01-24T18:17:52.925Z,0.10
2019-01-24T18:20:27.211Z,0.10
2019-01-24T18:22:55.653Z,0.10
2019-01-24T18:25:24.338Z,0.10
2019-01-24T18:27:52.843Z,0.10
2019-01-24T18:30:25.550Z,0.10
2019-01-24T18:32:54.430Z,0.10
2019-01-24T18:35:23.397Z,0.10
2019-01-24T18:37:51.992Z,0.10
2019-01-24T18:40:25.454Z,0.20
2019-01-24T18:42:54.655Z,0.10
2019-01-24T18:45:26.152Z,0.10
2019-01-24T18:47:54.906Z,0.10
2019-01-24T18:50:23.581Z,0.10
2019-01-24T18:52:52.577Z,0.10
2019-01-24T18:55:21.030Z,0.00
2019-01-24T18:57:49.770Z,0.00
2019-01-24T19:00:22.337Z,0.10
2019-01-24T19:02:51.545Z,0.10
2019-01-24T19:05:20.111Z,0.10
2019-01-24T19:07:48.904Z,0.10
2019-01-24T19:10:17.470Z,0.10
2019-01-24T19:12:47.606Z,0.10
2019-01-24T19:15:18.513Z,0.10
2019-01-24T19:17:48.101Z,0.10
2019-01-24T19:20:17.147Z,0.10
2019-01-24T19:22:45.769Z,0.10
2019-01-24T19:25:15.813Z,0.10
2019-01-24T19:27:44.528Z,0.10
2019-01-24T19:30:24.921Z,0.10
2019-01-24T19:32:54.120Z,0.10
2019-01-24T19:35:22.661Z,0.10
2019-01-24T19:37:51.351Z,0.10
2019-01-24T19:40:25.253Z,0.10
2019-01-24T19:42:53.823Z,0.10
2019-01-24T19:45:24.478Z,0.10
2019-01-24T19:47:53.286Z,0.10
2019-01-24T19:50:26.877Z,0.10
2019-01-24T19:52:55.711Z,0.10
2019-01-24T19:55:24.467Z,0.10
2019-01-24T19:57:53.682Z,0.10
2019-01-24T20:00:26.884Z,0.10
2019-01-24T20:02:55.869Z,0.10
2019-01-24T20:05:24.759Z,0.10
2019-01-24T20:07:54.434Z,0.10
2019-01-24T20:10:24.968Z,0.10
2019-01-24T20:12:53.552Z,0.10
2019-01-24T20:15:25.382Z,0.10
2019-01-24T20:17:54.291Z,0.10
2019-01-24T20:20:23.961Z,0.10
2019-01-24T20:22:54.234Z,0.10
2019-01-24T20:25:25.559Z,0.10
2019-01-24T20:27:54.168Z,0.10
2019-01-24T20:30:28.218Z,0.20
2019-01-24T20:32:58.307Z,0.10
2019-01-24T20:35:29.806Z,0.10
2019-01-24T20:37:58.326Z,0.10
2019-01-24T20:40:27.107Z,0.10
2019-01-24T20:42:55.754Z,0.10
2019-01-24T20:45:24.203Z,0.10
2019-01-24T20:47:52.943Z,0.10
2019-01-24T20:50:21.483Z,0.10
2019-01-24T20:52:50.009Z,0.10
2019-01-24T20:55:18.446Z,0.10
2019-01-24T20:57:46.946Z,0.10
2019-01-24T21:00:25.977Z,0.10
2019-01-24T21:02:55.491Z,0.10
2019-01-24T21:05:24.767Z,0.10
2019-01-24T21:07:53.775Z,0.10
2019-01-24T21:10:29.791Z,0.10
2019-01-24T21:12:58.454Z,0.00
2019-01-24T21:15:26.983Z,0.10
2019-01-24T21:17:55.732Z,0.10
2019-01-24T21:20:27.060Z,0.10
2019-01-24T21:22:55.590Z,0.10
2019-01-24T21:25:25.434Z,0.00
2019-01-24T21:27:54.196Z,0.10
2019-01-24T21:30:28.076Z,0.10
2019-01-24T21:32:56.663Z,0.10
2019-01-24T21:35:25.292Z,0.10
2019-01-24T21:37:53.834Z,0.00
2019-01-24T21:40:23.749Z,0.00
2019-01-24T21:42:52.325Z,0.00
2019-01-24T21:45:26.543Z,0.00
2019-01-24T21:47:55.240Z,0.00
2019-01-24T21:50:26.014Z,0.00
2019-01-24T21:52:54.543Z,0.00
2019-01-24T21:55:23.097Z,0.00
2019-01-24T21:57:51.729Z,0.00
2019-01-24T22:00:23.068Z,0.00
2019-01-24T22:02:52.077Z,0.00
2019-01-24T22:05:20.875Z,0.00
2019-01-24T22:07:49.392Z,0.00
2019-01-24T22:10:26.218Z,0.00
2019-01-24T22:12:55.041Z,0.00
2019-01-24T22:15:30.861Z,0.00
2019-01-24T22:17:59.941Z,0.00
2019-01-24T22:20:28.744Z,0.00
2019-01-24T22:22:57.407Z,0.00
2019-01-24T22:25:28.251Z,0.00
2019-01-24T22:27:56.823Z,0.10
2019-01-24T22:30:32.589Z,0.00
2019-01-24T22:33:01.093Z,0.00
2019-01-24T22:35:29.849Z,0.00
2019-01-24T22:37:58.278Z,0.10
2019-01-24T22:40:26.724Z,0.10
2019-01-24T22:42:55.158Z,0.10
2019-01-24T22:45:27.265Z,0.00
2019-01-24T22:47:55.758Z,0.10
2019-01-24T22:50:24.374Z,0.10
2019-01-24T22:52:52.865Z,0.00
2019-01-24T22:55:21.417Z,0.10
2019-01-24T22:57:49.914Z,0.10
2019-01-24T23:00:48.538Z,0.10
2019-01-24T23:03:22.834Z,0.10
2019-01-24T23:05:52.408Z,0.10
2019-01-24T23:08:20.914Z,0.10
2019-01-24T23:10:49.396Z,0.10
2019-01-24T23:13:17.991Z,0.10
2019-01-24T23:15:46.497Z,0.10
2019-01-24T23:18:15.018Z,0.00
2019-01-24T23:20:43.491Z,0.10
2019-01-24T23:23:12.029Z,0.10
2019-01-24T23:25:40.453Z,0.10
2019-01-24T23:28:09.035Z,0.10
2019-01-24T23:30:37.537Z,0.10
2019-01-24T23:33:06.043Z,0.10
2019-01-24T23:35:34.545Z,0.10
2019-01-24T23:38:03.132Z,0.00
2019-01-24T23:40:31.553Z,0.00
2019-01-24T23:43:00.095Z,0.00
2019-01-24T23:45:28.764Z,0.00
2019-01-24T23:47:57.552Z,0.00
2019-01-24T23:50:25.973Z,0.00
2019-01-24T23:52:54.423Z,0.00
2019-01-24T23:55:22.864Z,-0.10
2019-01-24T23:57:51.282Z,-0.10
